Flight Track Log - Related Links

Times and Time Zones

All times are in EDT time to prevent confusion due to time zone crossing. See the VRT51 flight status page for this flight to view local times or setup timezone preferences in your user account.

Time Position Orientation Groundspeed Altitude Reporting Facility
EDT Latitude Longitude Course Direction KTS MPH feet Rate Location/Type
Wed 11:02:45 AM 33.3281 -86.8456 79° East 238 274 3,100  Level Atlanta Center
Wed 11:03:45 AM 33.3633 -86.7697 61° Northeast 286 329 7,000 3,366 Climbing Atlanta Center
Wed 11:04:48 AM 33.4353 -86.7172 31° Northeast 341 392 10,000 5,246 Climbing Atlanta Center
Wed 11:06:48 AM 33.6322 -86.6861 North 364 419 23,000 4,333 Climbing Atlanta Center
Wed 11:07:48 AM 33.7308 -86.6689 North 357 411 23,000  Level Atlanta Center
Wed 11:08:48 AM 33.8522 -86.6478 North 374 430 23,000  Level Atlanta Center
Wed 11:11:00 AM 34.1261 -86.5986 North 453 521 23,000  Level Memphis Center
Wed 11:12:00 AM 34.2531 -86.5803 North 453 521 23,000  Level Memphis Center
Wed 11:13:00 AM 34.3817 -86.5569 North 461 531 23,000  Level Memphis Center
Wed 11:14:00 AM 34.4956 -86.5344 North 461 531 23,000  Level Memphis Center
Wed 11:15:00 AM 34.6244 -86.5133 North 467 537 23,000  Level Memphis Center
Wed 11:16:00 AM 34.7528 -86.4822 11° North 462 532 23,000  Level Memphis Center
Wed 11:17:00 AM 34.8717 -86.4186 24° Northeast 462 532 23,000  Level Memphis Center
Wed 11:18:00 AM 34.9814 -86.3272 34° Northeast 462 532 23,000  Level Memphis Center
Wed 11:19:00 AM 35.0911 -86.2333 35° Northeast 481 554 23,000 -300 Level Memphis Center
Wed 11:20:00 AM 35.1967 -86.1467 34° Northeast 470 541 22,400 -1,400 Descending Memphis Center
Wed 11:21:00 AM 35.3211 -86.1253 North 416 479 20,200 -2,100 Descending Memphis Center
Wed 11:22:00 AM 35.4278 -86.1961 332° Northwest 393 452 18,200 -1,850 Descending Memphis Center
Wed 11:23:00 AM 35.5261 -86.2678 329° Northwest 400 460 16,500 -1,900 Descending Memphis Center
Wed 11:24:00 AM 35.6264 -86.3369 331° Northwest 405 466 14,400 -2,050 Descending Memphis Center
Wed 11:25:00 AM 35.7222 -86.4014 331° Northwest 405 466 12,400 -2,050 Descending Memphis Center
Wed 11:26:00 AM 35.8117 -86.4608 332° Northwest 388 447 10,300 -1,600 Descending Memphis Center
Wed 11:27:00 AM 35.8917 -86.4878 345° North 328 377 9,200 -650 Descending Memphis Center
Wed 11:28:00 AM 35.9628 -86.4947 355° North 269 310 9,000 -650 Descending Memphis Center
Wed 11:29:00 AM 36.0422 -86.4989 358° North 264 304 7,900 -1,550 Descending Memphis Center
Wed 11:30:00 AM 36.1194 -86.5003 359° North 276 318 5,900 -1,600 Descending Memphis Center
Wed 11:31:00 AM 36.1925 -86.5044 357° North 266 306 4,700 -1,000 Descending Memphis Center
Wed 11:32:00 AM 36.2531 -86.5069 358° North 235 270 3,900 -1,000 Descending Memphis Center
Wed 11:33:00 AM 36.2775 -86.5544 303° West 181 208 2,700 -750 Descending Memphis Center
Wed 11:34:00 AM 36.2519 -86.6047 238° Southwest 121 139 2,400 -350 Descending Memphis Center
Wed 11:35:00 AM 36.2108 -86.6272 204° Southwest 151 174 2,000 -600 Descending Memphis Center
Wed 11:36:00 AM 36.1697 -86.6469 201° Southwest 161 185 1,200 -800 Descending Memphis Center
Wed 11:38:00 AM 36.1167 -86.6667 244° Southwest  Level FlightAware Approximate
Wed 11:45:00 AM 36.1245 -86.6782 244° Southwest  Level Estimated

Login

Don't have an account? Register now (free) for customized features, flight alerts, and more!